sensor_id;sensor_type;location;lat;lon;timestamp;pressure;altitude;pressure_sealevel;temperature;humidity
41596;BME280;27283;52.504;13.358;2022-09-02T00:00:27;101851.19;;;15.03;65.88
41596;BME280;27283;52.504;13.358;2022-09-02T00:03:01;101857.13;;;15.07;65.85
41596;BME280;27283;52.504;13.358;2022-09-02T00:05:33;101850.84;;;15.06;65.52
41596;BME280;27283;52.504;13.358;2022-09-02T00:08:09;101847.13;;;15.07;65.57
41596;BME280;27283;52.504;13.358;2022-09-02T00:10:43;101851.38;;;15.10;65.08
41596;BME280;27283;52.504;13.358;2022-09-02T00:13:16;101852.72;;;15.06;65.11
41596;BME280;27283;52.504;13.358;2022-09-02T00:15:49;101847.97;;;15.08;65.27
41596;BME280;27283;52.504;13.358;2022-09-02T00:18:22;101842.91;;;15.05;65.49
41596;BME280;27283;52.504;13.358;2022-09-02T00:20:55;101841.38;;;14.94;65.06
41596;BME280;27283;52.504;13.358;2022-09-02T00:23:30;101852.72;;;15.06;65.07
41596;BME280;27283;52.504;13.358;2022-09-02T00:26:02;101838.84;;;15.17;64.84
41596;BME280;27283;52.504;13.358;2022-09-02T00:28:34;101836.16;;;15.17;64.56
41596;BME280;27283;52.504;13.358;2022-09-02T00:31:11;101852.56;;;15.16;64.56
41596;BME280;27283;52.504;13.358;2022-09-02T00:33:44;101841.03;;;15.30;64.44
41596;BME280;27283;52.504;13.358;2022-09-02T00:36:19;101836.97;;;15.42;64.14
41596;BME280;27283;52.504;13.358;2022-09-02T00:38:54;101843.41;;;15.41;63.83
41596;BME280;27283;52.504;13.358;2022-09-02T00:41:27;101836.78;;;15.44;63.60
41596;BME280;27283;52.504;13.358;2022-09-02T00:44:02;101836.13;;;15.42;63.65
41596;BME280;27283;52.504;13.358;2022-09-02T00:46:35;101832.88;;;15.55;63.52
41596;BME280;27283;52.504;13.358;2022-09-02T00:49:10;101825.25;;;15.50;63.29
41596;BME280;27283;52.504;13.358;2022-09-02T00:51:46;101828.13;;;15.49;63.07
41596;BME280;27283;52.504;13.358;2022-09-02T00:54:24;101823.75;;;15.48;63.36
41596;BME280;27283;52.504;13.358;2022-09-02T00:56:57;101823.28;;;15.19;63.82
41596;BME280;27283;52.504;13.358;2022-09-02T00:59:40;101827.31;;;15.32;63.99
41596;BME280;27283;52.504;13.358;2022-09-02T01:02:14;101821.72;;;15.33;63.14
41596;BME280;27283;52.504;13.358;2022-09-02T01:04:52;101823.41;;;15.42;63.11
41596;BME280;27283;52.504;13.358;2022-09-02T01:07:30;101830.03;;;15.40;62.67
41596;BME280;27283;52.504;13.358;2022-09-02T01:10:08;101814.44;;;15.42;62.83
41596;BME280;27283;52.504;13.358;2022-09-02T01:12:41;101819.00;;;15.50;62.56
41596;BME280;27283;52.504;13.358;2022-09-02T01:15:13;101814.59;;;15.49;62.56
41596;BME280;27283;52.504;13.358;2022-09-02T01:17:49;101819.81;;;15.50;62.27
41596;BME280;27283;52.504;13.358;2022-09-02T01:20:24;101820.53;;;15.44;62.36
41596;BME280;27283;52.504;13.358;2022-09-02T01:23:00;101824.09;;;15.36;62.37
41596;BME280;27283;52.504;13.358;2022-09-02T01:25:34;101813.78;;;15.40;62.43
41596;BME280;27283;52.504;13.358;2022-09-02T01:28:08;101810.69;;;15.51;62.28
41596;BME280;27283;52.504;13.358;2022-09-02T01:30:46;101810.69;;;15.59;62.08
41596;BME280;27283;52.504;13.358;2022-09-02T01:33:19;101816.47;;;15.32;62.44
41596;BME280;27283;52.504;13.358;2022-09-02T01:35:54;101811.41;;;15.20;62.52
41596;BME280;27283;52.504;13.358;2022-09-02T01:38:30;101812.09;;;15.22;62.83
41596;BME280;27283;52.504;13.358;2022-09-02T01:41:04;101811.56;;;15.27;62.72
41596;BME280;27283;52.504;13.358;2022-09-02T01:43:36;101811.75;;;15.26;62.67
41596;BME280;27283;52.504;13.358;2022-09-02T01:46:09;101808.53;;;15.14;63.32
41596;BME280;27283;52.504;13.358;2022-09-02T01:48:41;101809.88;;;15.10;63.56
41596;BME280;27283;52.504;13.358;2022-09-02T01:51:16;101807.84;;;15.20;62.90
41596;BME280;27283;52.504;13.358;2022-09-02T01:53:51;101813.09;;;15.21;62.85
41596;BME280;27283;52.504;13.358;2022-09-02T01:56:24;101807.50;;;15.06;63.33
41596;BME280;27283;52.504;13.358;2022-09-02T01:58:57;101806.84;;;15.13;63.67
41596;BME280;27283;52.504;13.358;2022-09-02T02:01:30;101807.00;;;15.19;63.19
41596;BME280;27283;52.504;13.358;2022-09-02T02:04:03;101804.63;;;15.08;63.34
41596;BME280;27283;52.504;13.358;2022-09-02T02:06:42;101808.19;;;15.00;63.61
41596;BME280;27283;52.504;13.358;2022-09-02T02:09:22;101802.78;;;15.09;63.21
41596;BME280;27283;52.504;13.358;2022-09-02T02:12:40;101800.75;;;15.11;63.17
41596;BME280;27283;52.504;13.358;2022-09-02T02:15:41;101807.00;;;15.11;63.53
41596;BME280;27283;52.504;13.358;2022-09-02T02:18:14;101804.78;;;15.23;63.21
41596;BME280;27283;52.504;13.358;2022-09-02T02:20:46;101802.78;;;15.17;63.56
41596;BME280;27283;52.504;13.358;2022-09-02T02:23:20;101791.97;;;15.09;63.53
41596;BME280;27283;52.504;13.358;2022-09-02T02:25:55;101797.88;;;15.04;63.69
41596;BME280;27283;52.504;13.358;2022-09-02T02:28:28;101801.94;;;14.92;64.08
41596;BME280;27283;52.504;13.358;2022-09-02T02:31:00;101802.59;;;15.02;63.79
41596;BME280;27283;52.504;13.358;2022-09-02T02:33:32;101792.44;;;14.96;64.46
41596;BME280;27283;52.504;13.358;2022-09-02T02:36:07;101794.66;;;14.92;64.21
41596;BME280;27283;52.504;13.358;2022-09-02T02:38:40;101797.88;;;14.96;64.30
41596;BME280;27283;52.504;13.358;2022-09-02T02:41:16;101798.91;;;14.78;65.18
41596;BME280;27283;52.504;13.358;2022-09-02T02:43:49;101801.94;;;14.75;65.18
41596;BME280;27283;52.504;13.358;2022-09-02T02:46:21;101796.66;;;14.65;65.68
41596;BME280;27283;52.504;13.358;2022-09-02T02:48:54;101797.84;;;14.63;65.71
41596;BME280;27283;52.504;13.358;2022-09-02T02:51:27;101794.97;;;14.64;65.52
41596;BME280;27283;52.504;13.358;2022-09-02T02:54:00;101805.44;;;14.59;66.15
41596;BME280;27283;52.504;13.358;2022-09-02T02:56:35;101796.47;;;14.59;66.27
41596;BME280;27283;52.504;13.358;2022-09-02T02:59:08;101801.91;;;14.67;65.90
41596;BME280;27283;52.504;13.358;2022-09-02T03:01:40;101802.09;;;14.65;65.97
41596;BME280;27283;52.504;13.358;2022-09-02T03:04:13;101793.06;;;14.57;66.20
41596;BME280;27283;52.504;13.358;2022-09-02T03:06:45;101798.16;;;14.51;66.66
41596;BME280;27283;52.504;13.358;2022-09-02T03:09:18;101797.13;;;14.52;67.07
41596;BME280;27283;52.504;13.358;2022-09-02T03:11:54;101794.28;;;14.54;66.87
41596;BME280;27283;52.504;13.358;2022-09-02T03:14:26;101798.47;;;14.48;66.78
41596;BME280;27283;52.504;13.358;2022-09-02T03:16:59;101799.16;;;14.42;67.32
41596;BME280;27283;52.504;13.358;2022-09-02T03:19:31;101799.47;;;14.39;67.63
41596;BME280;27283;52.504;13.358;2022-09-02T03:22:04;101788.94;;;14.20;68.15
41596;BME280;27283;52.504;13.358;2022-09-02T03:24:38;101786.03;;;14.13;68.25
41596;BME280;27283;52.504;13.358;2022-09-02T03:27:26;101787.59;;;14.24;68.34
41596;BME280;27283;52.504;13.358;2022-09-02T03:30:01;101781.00;;;14.18;68.32
41596;BME280;27283;52.504;13.358;2022-09-02T03:32:33;101782.00;;;14.17;68.45
41596;BME280;27283;52.504;13.358;2022-09-02T03:35:09;101781.97;;;14.09;68.79
41596;BME280;27283;52.504;13.358;2022-09-02T03:37:41;101787.06;;;14.12;68.86
41596;BME280;27283;52.504;13.358;2022-09-02T03:40:17;101787.22;;;14.10;68.78
41596;BME280;27283;52.504;13.358;2022-09-02T03:42:53;101781.00;;;14.18;68.57
41596;BME280;27283;52.504;13.358;2022-09-02T03:45:28;101779.50;;;14.24;68.94
41596;BME280;27283;52.504;13.358;2022-09-02T03:48:03;101774.69;;;14.09;70.24
41596;BME280;27283;52.504;13.358;2022-09-02T03:50:37;101775.69;;;14.08;70.62
41596;BME280;27283;52.504;13.358;2022-09-02T03:53:09;101782.47;;;14.04;69.75
41596;BME280;27283;52.504;13.358;2022-09-02T03:55:47;101780.09;;;14.01;69.79
41596;BME280;27283;52.504;13.358;2022-09-02T03:58:24;101781.25;;;13.98;70.03
41596;BME280;27283;52.504;13.358;2022-09-02T04:00:57;101775.28;;;13.87;70.65
41596;BME280;27283;52.504;13.358;2022-09-02T04:03:30;101777.66;;;13.81;70.93
41596;BME280;27283;52.504;13.358;2022-09-02T04:06:02;101778.88;;;13.95;70.53
41596;BME280;27283;52.504;13.358;2022-09-02T04:08:35;101783.97;;;13.98;70.12
41596;BME280;27283;52.504;13.358;2022-09-02T04:11:09;101783.59;;;13.93;71.64
41596;BME280;27283;52.504;13.358;2022-09-02T04:13:45;101777.84;;;13.88;72.16
41596;BME280;27283;52.504;13.358;2022-09-02T04:16:19;101785.38;;;13.76;71.92
41596;BME280;27283;52.504;13.358;2022-09-02T04:18:57;101789.97;;;13.84;70.98
41596;BME280;27283;52.504;13.358;2022-09-02T04:21:34;101799.44;;;13.80;71.21
41596;BME280;27283;52.504;13.358;2022-09-02T04:24:12;101795.06;;;13.87;72.05
41596;BME280;27283;52.504;13.358;2022-09-02T04:26:44;101794.78;;;13.98;70.64
41596;BME280;27283;52.504;13.358;2022-09-02T04:29:18;101788.47;;;13.90;70.89
41596;BME280;27283;52.504;13.358;2022-09-02T04:31:54;101789.47;;;13.80;71.46
41596;BME280;27283;52.504;13.358;2022-09-02T04:34:26;101791.53;;;13.95;70.75
41596;BME280;27283;52.504;13.358;2022-09-02T04:36:58;101790.03;;;14.00;70.53
41596;BME280;27283;52.504;13.358;2022-09-02T04:39:29;101794.47;;;14.10;70.19
41596;BME280;27283;52.504;13.358;2022-09-02T04:42:02;101789.25;;;14.16;70.25
41596;BME280;27283;52.504;13.358;2022-09-02T04:44:37;101792.47;;;14.20;70.04
41596;BME280;27283;52.504;13.358;2022-09-02T04:47:09;101795.19;;;14.20;70.10
41596;BME280;27283;52.504;13.358;2022-09-02T04:49:43;101790.75;;;14.11;69.96
41596;BME280;27283;52.504;13.358;2022-09-02T04:52:21;101794.63;;;14.08;70.07
41596;BME280;27283;52.504;13.358;2022-09-02T04:55:34;101792.47;;;14.20;70.12
41596;BME280;27283;52.504;13.358;2022-09-02T04:58:58;101791.09;;;14.08;70.16
41596;BME280;27283;52.504;13.358;2022-09-02T05:02:13;101791.09;;;14.16;69.99
41596;BME280;27283;52.504;13.358;2022-09-02T05:04:48;101791.31;;;14.23;69.64
41596;BME280;27283;52.504;13.358;2022-09-02T05:07:20;101796.22;;;14.27;69.54
41596;BME280;27283;52.504;13.358;2022-09-02T05:09:56;101804.19;;;14.29;69.57
41596;BME280;27283;52.504;13.358;2022-09-02T05:12:30;101798.13;;;14.43;69.00
41596;BME280;27283;52.504;13.358;2022-09-02T05:15:04;101803.22;;;14.46;68.77
41596;BME280;27283;52.504;13.358;2022-09-02T05:17:39;101802.69;;;14.43;68.91
41596;BME280;27283;52.504;13.358;2022-09-02T05:20:13;101802.63;;;14.18;69.70
41596;BME280;27283;52.504;13.358;2022-09-02T05:22:45;101805.88;;;14.38;69.09
41596;BME280;27283;52.504;13.358;2022-09-02T05:25:18;101810.13;;;14.41;69.12
41596;BME280;27283;52.504;13.358;2022-09-02T05:27:50;101811.13;;;14.40;68.59
41596;BME280;27283;52.504;13.358;2022-09-02T05:30:22;101813.16;;;14.38;68.68
41596;BME280;27283;52.504;13.358;2022-09-02T05:32:57;101813.84;;;14.40;68.85
41596;BME280;27283;52.504;13.358;2022-09-02T05:35:29;101807.94;;;14.44;68.79
41596;BME280;27283;52.504;13.358;2022-09-02T05:38:05;101811.19;;;14.56;67.67
41596;BME280;27283;52.504;13.358;2022-09-02T05:40:37;101811.75;;;14.68;67.64
41596;BME280;27283;52.504;13.358;2022-09-02T05:43:10;101811.91;;;14.75;67.58
41596;BME280;27283;52.504;13.358;2022-09-02T05:45:42;101811.72;;;14.76;67.28
41596;BME280;27283;52.504;13.358;2022-09-02T05:48:18;101805.31;;;15.02;66.41
41596;BME280;27283;52.504;13.358;2022-09-02T05:51:04;101808.88;;;15.11;65.98
41596;BME280;27283;52.504;13.358;2022-09-02T05:53:36;101809.88;;;15.18;66.45
41596;BME280;27283;52.504;13.358;2022-09-02T05:56:09;101800.56;;;15.29;65.47
41596;BME280;27283;52.504;13.358;2022-09-02T05:58:41;101809.03;;;15.26;65.57
41596;BME280;27283;52.504;13.358;2022-09-02T06:01:15;101806.81;;;15.29;65.69
41596;BME280;27283;52.504;13.358;2022-09-02T06:03:51;101806.31;;;15.42;65.17
41596;BME280;27283;52.504;13.358;2022-09-02T06:06:24;101808.84;;;15.44;64.67
41596;BME280;27283;52.504;13.358;2022-09-02T06:08:56;101805.66;;;15.40;65.70
41596;BME280;27283;52.504;13.358;2022-09-02T06:11:28;101812.22;;;15.54;64.91
41596;BME280;27283;52.504;13.358;2022-09-02T06:14:03;101812.91;;;15.48;65.42
41596;BME280;27283;52.504;13.358;2022-09-02T06:16:51;101811.50;;;15.68;64.42
41596;BME280;27283;52.504;13.358;2022-09-02T06:19:27;101811.16;;;15.80;63.92
41596;BME280;27283;52.504;13.358;2022-09-02T06:22:02;101807.59;;;15.71;64.06
41596;BME280;27283;52.504;13.358;2022-09-02T06:24:35;101806.69;;;15.95;63.76
41596;BME280;27283;52.504;13.358;2022-09-02T06:27:07;101801.38;;;16.10;63.28
41596;BME280;27283;52.504;13.358;2022-09-02T06:29:40;101802.94;;;16.59;61.57
41596;BME280;27283;52.504;13.358;2022-09-02T06:32:12;101804.84;;;16.58;61.45
41596;BME280;27283;52.504;13.358;2022-09-02T06:34:47;101805.81;;;16.65;61.12
41596;BME280;27283;52.504;13.358;2022-09-02T06:37:19;101806.25;;;17.00;60.37
41596;BME280;27283;52.504;13.358;2022-09-02T06:39:53;101800.06;;;17.75;57.47
41596;BME280;27283;52.504;13.358;2022-09-02T06:42:25;101802.63;;;17.91;56.57
41596;BME280;27283;52.504;13.358;2022-09-02T06:44:57;101806.53;;;17.74;56.52
41596;BME280;27283;52.504;13.358;2022-09-02T06:47:30;101804.69;;;17.74;56.43
41596;BME280;27283;52.504;13.358;2022-09-02T06:50:06;101805.06;;;17.71;57.05
41596;BME280;27283;52.504;13.358;2022-09-02T06:52:39;101802.16;;;17.73;56.55
41596;BME280;27283;52.504;13.358;2022-09-02T06:55:13;101805.34;;;17.91;56.95
41596;BME280;27283;52.504;13.358;2022-09-02T06:57:49;101807.09;;;18.72;54.75
41596;BME280;27283;52.504;13.358;2022-09-02T07:00:22;101802.00;;;19.62;51.99
41596;BME280;27283;52.504;13.358;2022-09-02T07:02:55;101789.81;;;20.48;50.14
41596;BME280;27283;52.504;13.358;2022-09-02T07:06:04;101784.34;;;21.82;46.51
41596;BME280;27283;52.504;13.358;2022-09-02T07:08:44;101794.84;;;22.37;44.83
41596;BME280;27283;52.504;13.358;2022-09-02T07:11:22;101798.22;;;22.39;43.87
41596;BME280;27283;52.504;13.358;2022-09-02T07:14:09;101804.16;;;22.29;45.15
41596;BME280;27283;52.504;13.358;2022-09-02T07:16:45;101804.97;;;23.00;41.92
41596;BME280;27283;52.504;13.358;2022-09-02T07:19:25;101801.75;;;22.78;42.18
41596;BME280;27283;52.504;13.358;2022-09-02T07:22:06;101808.66;;;22.55;42.71
41596;BME280;27283;52.504;13.358;2022-09-02T07:24:39;101808.25;;;22.52;43.19
41596;BME280;27283;52.504;13.358;2022-09-02T07:27:12;101808.72;;;22.80;42.89
41596;BME280;27283;52.504;13.358;2022-09-02T07:29:47;101801.06;;;22.57;43.01
41596;BME280;27283;52.504;13.358;2022-09-02T07:32:28;101811.75;;;22.27;43.87
41596;BME280;27283;52.504;13.358;2022-09-02T07:35:08;101800.50;;;21.90;44.07
41596;BME280;27283;52.504;13.358;2022-09-02T07:37:48;101808.81;;;21.43;45.88
41596;BME280;27283;52.504;13.358;2022-09-02T07:40:25;101799.56;;;20.91;47.21
41596;BME280;27283;52.504;13.358;2022-09-02T07:43:09;101800.81;;;20.81;47.34
41596;BME280;27283;52.504;13.358;2022-09-02T07:45:57;101800.31;;;20.51;48.39
41596;BME280;27283;52.504;13.358;2022-09-02T07:48:42;101807.44;;;20.45;48.38
41596;BME280;27283;52.504;13.358;2022-09-02T07:51:21;101798.00;;;20.41;49.12
41596;BME280;27283;52.504;13.358;2022-09-02T07:54:03;101802.28;;;20.70;48.52
41596;BME280;27283;52.504;13.358;2022-09-02T07:56:36;101805.00;;;20.70;48.48
41596;BME280;27283;52.504;13.358;2022-09-02T07:59:10;101806.06;;;20.76;48.44
41596;BME280;27283;52.504;13.358;2022-09-02T08:01:43;101805.03;;;20.91;47.92
41596;BME280;27283;52.504;13.358;2022-09-02T08:04:17;101802.53;;;20.96;48.87
41596;BME280;27283;52.504;13.358;2022-09-02T08:06:51;101803.13;;;21.18;48.23
41596;BME280;27283;52.504;13.358;2022-09-02T08:09:27;101802.94;;;21.26;47.58
41596;BME280;27283;52.504;13.358;2022-09-02T08:11:59;101800.41;;;20.98;48.10
41596;BME280;27283;52.504;13.358;2022-09-02T08:14:32;101805.88;;;20.91;48.19
41596;BME280;27283;52.504;13.358;2022-09-02T08:17:04;101801.06;;;21.20;46.98
41596;BME280;27283;52.504;13.358;2022-09-02T08:19:36;101800.38;;;21.71;46.02
41596;BME280;27283;52.504;13.358;2022-09-02T08:22:09;101795.91;;;21.84;44.98
41596;BME280;27283;52.504;13.358;2022-09-02T08:25:08;101788.13;;;21.81;44.88
41596;BME280;27283;52.504;13.358;2022-09-02T08:27:41;101796.78;;;22.36;44.32
41596;BME280;27283;52.504;13.358;2022-09-02T08:30:13;101794.59;;;22.45;43.23
41596;BME280;27283;52.504;13.358;2022-09-02T08:32:45;101793.50;;;22.53;43.46
41596;BME280;27283;52.504;13.358;2022-09-02T08:35:17;101797.75;;;22.80;42.11
41596;BME280;27283;52.504;13.358;2022-09-02T08:37:49;101798.75;;;22.86;43.65
41596;BME280;27283;52.504;13.358;2022-09-02T08:40:27;101797.38;;;23.89;39.84
41596;BME280;27283;52.504;13.358;2022-09-02T08:43:18;101798.88;;;24.53;39.92
41596;BME280;27283;52.504;13.358;2022-09-02T08:46:02;101787.75;;;24.90;37.64
41596;BME280;27283;52.504;13.358;2022-09-02T08:48:45;101796.16;;;25.66;36.06
41596;BME280;27283;52.504;13.358;2022-09-02T08:51:30;101791.41;;;26.14;35.03
41596;BME280;27283;52.504;13.358;2022-09-02T08:54:08;101794.00;;;26.21;36.97
41596;BME280;27283;52.504;13.358;2022-09-02T08:56:44;101788.63;;;26.72;33.29
41596;BME280;27283;52.504;13.358;2022-09-02T08:59:23;101784.50;;;26.28;34.63
41596;BME280;27283;52.504;13.358;2022-09-02T09:02:04;101776.19;;;26.57;33.71
41596;BME280;27283;52.504;13.358;2022-09-02T09:05:06;101784.88;;;26.95;32.95
41596;BME280;27283;52.504;13.358;2022-09-02T09:08:01;101780.03;;;26.68;35.56
41596;BME280;27283;52.504;13.358;2022-09-02T09:10:51;101775.63;;;26.09;34.89
41596;BME280;27283;52.504;13.358;2022-09-02T09:16:38;101772.53;;;26.51;33.41
41596;BME280;27283;52.504;13.358;2022-09-02T09:19:13;101770.25;;;26.77;32.52
41596;BME280;27283;52.504;13.358;2022-09-02T09:21:46;101772.16;;;26.77;33.16
41596;BME280;27283;52.504;13.358;2022-09-02T09:24:25;101762.53;;;27.30;32.71
41596;BME280;27283;52.504;13.358;2022-09-02T09:27:00;101767.00;;;28.20;31.24
41596;BME280;27283;52.504;13.358;2022-09-02T09:29:37;101766.50;;;27.79;30.37
41596;BME280;27283;52.504;13.358;2022-09-02T09:32:19;101756.63;;;27.83;29.40
41596;BME280;27283;52.504;13.358;2022-09-02T09:34:56;101755.19;;;27.36;30.05
41596;BME280;27283;52.504;13.358;2022-09-02T09:37:33;101758.03;;;27.63;30.77
41596;BME280;27283;52.504;13.358;2022-09-02T09:40:25;101758.31;;;27.05;29.63
41596;BME280;27283;52.504;13.358;2022-09-02T09:43:11;101751.31;;;26.52;30.20
41596;BME280;27283;52.504;13.358;2022-09-02T09:45:48;101759.53;;;26.81;31.35
41596;BME280;27283;52.504;13.358;2022-09-02T09:48:22;101755.94;;;26.97;31.04
41596;BME280;27283;52.504;13.358;2022-09-02T09:51:12;101743.63;;;27.39;30.39
41596;BME280;27283;52.504;13.358;2022-09-02T09:53:44;101744.66;;;26.65;30.65
41596;BME280;27283;52.504;13.358;2022-09-02T09:56:29;101736.69;;;25.94;32.15
41596;BME280;27283;52.504;13.358;2022-09-02T09:59:08;101735.50;;;26.47;31.14
41596;BME280;27283;52.504;13.358;2022-09-02T10:02:03;101736.44;;;26.53;30.43
41596;BME280;27283;52.504;13.358;2022-09-02T10:04:36;101735.94;;;26.56;31.80
41596;BME280;27283;52.504;13.358;2022-09-02T10:07:12;101724.16;;;26.44;31.04
41596;BME280;27283;52.504;13.358;2022-09-02T10:09:44;101725.97;;;26.21;31.91
41596;BME280;27283;52.504;13.358;2022-09-02T10:12:31;101731.19;;;25.41;33.10
41596;BME280;27283;52.504;13.358;2022-09-02T10:15:04;101730.91;;;24.30;34.39
41596;BME280;27283;52.504;13.358;2022-09-02T10:17:49;101726.91;;;24.56;35.00
41596;BME280;27283;52.504;13.358;2022-09-02T10:20:37;101726.38;;;24.66;33.79
41596;BME280;27283;52.504;13.358;2022-09-02T10:23:35;101720.22;;;24.10;33.32
41596;BME280;27283;52.504;13.358;2022-09-02T10:26:24;101725.56;;;24.35;33.30
41596;BME280;27283;52.504;13.358;2022-09-02T10:29:24;101727.44;;;23.92;34.71
41596;BME280;27283;52.504;13.358;2022-09-02T10:32:14;101722.22;;;23.84;34.06
41596;BME280;27283;52.504;13.358;2022-09-02T10:35:00;101721.06;;;24.10;34.19
41596;BME280;27283;52.504;13.358;2022-09-02T10:37:42;101720.63;;;23.95;35.26
41596;BME280;27283;52.504;13.358;2022-09-02T10:40:21;101710.38;;;24.32;35.14
41596;BME280;27283;52.504;13.358;2022-09-02T10:43:02;101710.78;;;24.48;34.56
41596;BME280;27283;52.504;13.358;2022-09-02T10:45:43;101713.69;;;24.22;35.06
41596;BME280;27283;52.504;13.358;2022-09-02T10:48:31;101723.22;;;23.71;34.57
41596;BME280;27283;52.504;13.358;2022-09-02T10:51:14;101718.13;;;23.38;35.29
41596;BME280;27283;52.504;13.358;2022-09-02T10:54:01;101719.91;;;22.56;36.00
41596;BME280;27283;52.504;13.358;2022-09-02T10:56:43;101714.88;;;22.53;36.39
41596;BME280;27283;52.504;13.358;2022-09-02T10:59:22;101717.25;;;22.43;36.32
41596;BME280;27283;52.504;13.358;2022-09-02T11:02:02;101710.34;;;22.65;36.13
41596;BME280;27283;52.504;13.358;2022-09-02T11:04:40;101704.59;;;22.74;36.11
41596;BME280;27283;52.504;13.358;2022-09-02T11:07:24;101701.88;;;22.92;36.70
41596;BME280;27283;52.504;13.358;2022-09-02T11:10:03;101707.63;;;22.84;35.74
41596;BME280;27283;52.504;13.358;2022-09-02T11:12:43;101710.06;;;22.74;36.74
41596;BME280;27283;52.504;13.358;2022-09-02T11:15:17;101698.38;;;23.29;35.76
41596;BME280;27283;52.504;13.358;2022-09-02T11:17:57;101694.06;;;24.07;34.36
41596;BME280;27283;52.504;13.358;2022-09-02T11:20:37;101701.72;;;24.17;33.69
41596;BME280;27283;52.504;13.358;2022-09-02T11:23:19;101703.31;;;23.76;34.49
41596;BME280;27283;52.504;13.358;2022-09-02T11:25:58;101693.75;;;23.04;34.65
41596;BME280;27283;52.504;13.358;2022-09-02T11:28:40;101703.59;;;22.36;35.59
41596;BME280;27283;52.504;13.358;2022-09-02T11:31:18;101700.13;;;22.16;36.09
41596;BME280;27283;52.504;13.358;2022-09-02T11:33:56;101697.06;;;22.30;36.21
41596;BME280;27283;52.504;13.358;2022-09-02T11:36:50;101691.41;;;22.32;36.30
41596;BME280;27283;52.504;13.358;2022-09-02T11:39:30;101691.78;;;22.36;37.27
41596;BME280;27283;52.504;13.358;2022-09-02T11:42:36;101690.84;;;22.17;36.93
41596;BME280;27283;52.504;13.358;2022-09-02T11:45:26;101693.94;;;22.27;35.54
41596;BME280;27283;52.504;13.358;2022-09-02T11:48:45;101684.88;;;22.26;35.61
41596;BME280;27283;52.504;13.358;2022-09-02T11:54:37;101678.81;;;22.18;33.96
41596;BME280;27283;52.504;13.358;2022-09-02T11:57:12;101682.34;;;22.32;32.68
41596;BME280;27283;52.504;13.358;2022-09-02T12:00:04;101681.75;;;22.55;31.34
41596;BME280;27283;52.504;13.358;2022-09-02T12:02:42;101683.59;;;22.61;30.48
41596;BME280;27283;52.504;13.358;2022-09-02T12:05:49;101669.44;;;22.89;31.53
41596;BME280;27283;52.504;13.358;2022-09-02T12:08:55;101664.97;;;22.70;33.14
41596;BME280;27283;52.504;13.358;2022-09-02T12:11:43;101671.00;;;21.89;34.76
41596;BME280;27283;52.504;13.358;2022-09-02T12:21:08;101654.09;;;21.61;36.07
41596;BME280;27283;52.504;13.358;2022-09-02T12:24:18;101641.47;;;21.59;36.47
41596;BME280;27283;52.504;13.358;2022-09-02T12:27:27;101645.50;;;21.89;36.21
41596;BME280;27283;52.504;13.358;2022-09-02T12:29:59;101646.00;;;21.72;35.98
41596;BME280;27283;52.504;13.358;2022-09-02T12:33:03;101641.63;;;21.71;36.38
41596;BME280;27283;52.504;13.358;2022-09-02T12:35:51;101634.78;;;21.87;36.60
41596;BME280;27283;52.504;13.358;2022-09-02T12:38:30;101637.50;;;21.87;35.16
41596;BME280;27283;52.504;13.358;2022-09-02T12:44:25;101629.41;;;22.06;35.22
41596;BME280;27283;52.504;13.358;2022-09-02T12:47:05;101622.03;;;21.74;35.89
41596;BME280;27283;52.504;13.358;2022-09-02T12:49:45;101619.22;;;21.81;35.50
41596;BME280;27283;52.504;13.358;2022-09-02T12:52:38;101623.81;;;22.19;35.85
41596;BME280;27283;52.504;13.358;2022-09-02T12:55:18;101612.38;;;22.29;36.17
41596;BME280;27283;52.504;13.358;2022-09-02T12:57:54;101606.06;;;22.28;35.47
41596;BME280;27283;52.504;13.358;2022-09-02T13:00:56;101597.94;;;23.09;34.53
41596;BME280;27283;52.504;13.358;2022-09-02T13:07:03;101603.47;;;23.03;34.60
41596;BME280;27283;52.504;13.358;2022-09-02T13:09:49;101604.31;;;22.41;35.41
41596;BME280;27283;52.504;13.358;2022-09-02T13:12:46;101598.75;;;22.47;34.90
41596;BME280;27283;52.504;13.358;2022-09-02T13:15:34;101594.16;;;22.85;34.22
41596;BME280;27283;52.504;13.358;2022-09-02T13:18:42;101598.91;;;22.96;34.55
41596;BME280;27283;52.504;13.358;2022-09-02T13:21:30;101592.66;;;23.08;34.18
41596;BME280;27283;52.504;13.358;2022-09-02T13:27:40;101588.81;;;22.90;34.61
41596;BME280;27283;52.504;13.358;2022-09-02T13:30:18;101585.63;;;22.75;33.55
41596;BME280;27283;52.504;13.358;2022-09-02T13:33:01;101600.03;;;22.45;34.00
41596;BME280;27283;52.504;13.358;2022-09-02T13:35:41;101592.81;;;22.25;34.21
41596;BME280;27283;52.504;13.358;2022-09-02T13:38:22;101585.44;;;22.51;34.31
41596;BME280;27283;52.504;13.358;2022-09-02T13:40:55;101588.16;;;22.26;34.48
41596;BME280;27283;52.504;13.358;2022-09-02T13:43:27;101578.66;;;22.28;33.98
41596;BME280;27283;52.504;13.358;2022-09-02T13:46:00;101576.44;;;22.44;33.53
41596;BME280;27283;52.504;13.358;2022-09-02T13:48:33;101558.09;;;22.44;33.90
41596;BME280;27283;52.504;13.358;2022-09-02T13:51:13;101567.28;;;22.75;33.65
41596;BME280;27283;52.504;13.358;2022-09-02T13:53:47;101572.69;;;23.00;34.01
41596;BME280;27283;52.504;13.358;2022-09-02T13:56:40;101565.53;;;22.81;33.52
41596;BME280;27283;52.504;13.358;2022-09-02T13:59:13;101562.53;;;22.82;33.78
41596;BME280;27283;52.504;13.358;2022-09-02T14:01:46;101557.28;;;22.44;34.19